KGEY/GEY METAR and TAF weather

Enter ICAO airport designator
Station Type Date Time Source
KGEY METAR 2021/01/27 13:53 UTC NOAA

KGEY 271353Z AUTO 00000KT 10SM CLR M16/M18 A2995 RMK AO2 SLP211 T11611183


Station Type Date Time Source
KGEY Decoded METAR 2021/01/27 13:53 UTC NOAA

SOUTH BIG HORN COUNTY AIRPORT , WY, United States (KGEY) 44-31N 108-05W 1191M
Jan 27, 2021 - 08:53 AM EST / 2021.01.27 1353 UTC
Wind: Calm:0
Visibility: 10 mile(s):0
Sky conditions: clear
Temperature: 3.0 F (-16.1 C)
Dew Point: -0.9 F (-18.3 C)
Relative Humidity: 83%
Pressure (altimeter): 29.95 in. Hg (1014 hPa)
ob: KGEY 271353Z AUTO 00000KT 10SM CLR M16/M18 A2995 RMK AO2 SLP211 T11611183
cycle: 14

Station Type Date Time Source
KGEY TAF UTC NOAA

Error!

Example: see airport list